Dara'A, Syria
Current Conditions -  °F | °C
As of 2:00 PM on Friday 28 Nov 2014 (Local Time) from OJAM Reporting Station
Haze Haze  
Wind Chill: 55°   Ceiling: 3000
Heat Index: 55°   Visibility: 3mi
Dew Point: 41°   Wind: 6mph
Humidity: 58%   Direction: 330°NNW
Pressure: 30.21"   Gusts: NA
Location:  32.6°N, 36.1°E
Report Text: OJAM 281100Z 33005KT 5000 HZ SCT025 BKN030 13/05 Q1023 NOSIG
Loading
Personal Weather Stations






























Interactive Weather Map New forecast layout! Learn more

10-Day Weather Forecast

Advertisements
Track Severe Weather on mobile